sensor_id;sensor_type;location;lat;lon;timestamp;P1;durP1;ratioP1;P2;durP2;ratioP2
18820;SDS011;9539;59.332;18.034;2024-03-02T00:00:39;59.83;;;24.25;;
18820;SDS011;9539;59.332;18.034;2024-03-02T00:03:00;57.92;;;22.70;;
18820;SDS011;9539;59.332;18.034;2024-03-02T00:05:22;64.20;;;25.48;;
18820;SDS011;9539;59.332;18.034;2024-03-02T00:07:44;63.45;;;25.35;;
18820;SDS011;9539;59.332;18.034;2024-03-02T00:10:09;63.53;;;23.13;;
18820;SDS011;9539;59.332;18.034;2024-03-02T00:12:31;61.15;;;25.35;;
18820;SDS011;9539;59.332;18.034;2024-03-02T00:14:53;57.33;;;22.52;;
18820;SDS011;9539;59.332;18.034;2024-03-02T00:17:17;59.28;;;24.27;;
18820;SDS011;9539;59.332;18.034;2024-03-02T00:22:28;66.90;;;25.67;;
18820;SDS011;9539;59.332;18.034;2024-03-02T00:24:50;68.03;;;27.00;;
18820;SDS011;9539;59.332;18.034;2024-03-02T00:27:12;69.70;;;25.88;;
18820;SDS011;9539;59.332;18.034;2024-03-02T00:29:35;64.90;;;24.77;;
18820;SDS011;9539;59.332;18.034;2024-03-02T00:31:57;61.28;;;24.50;;
18820;SDS011;9539;59.332;18.034;2024-03-02T00:34:20;67.15;;;25.67;;
18820;SDS011;9539;59.332;18.034;2024-03-02T00:36:42;66.47;;;26.35;;
18820;SDS011;9539;59.332;18.034;2024-03-02T00:39:04;53.90;;;22.60;;
18820;SDS011;9539;59.332;18.034;2024-03-02T00:41:30;61.42;;;25.35;;
18820;SDS011;9539;59.332;18.034;2024-03-02T00:44:01;62.50;;;25.92;;
18820;SDS011;9539;59.332;18.034;2024-03-02T00:46:23;52.72;;;21.60;;
18820;SDS011;9539;59.332;18.034;2024-03-02T00:48:48;60.10;;;25.35;;
18820;SDS011;9539;59.332;18.034;2024-03-02T00:51:13;59.75;;;24.95;;
18820;SDS011;9539;59.332;18.034;2024-03-02T00:53:35;58.00;;;23.75;;
18820;SDS011;9539;59.332;18.034;2024-03-02T00:55:58;65.93;;;25.40;;
18820;SDS011;9539;59.332;18.034;2024-03-02T00:58:19;62.60;;;25.67;;
18820;SDS011;9539;59.332;18.034;2024-03-02T01:00:41;58.72;;;25.38;;
18820;SDS011;9539;59.332;18.034;2024-03-02T01:03:03;63.95;;;24.83;;
18820;SDS011;9539;59.332;18.034;2024-03-02T01:05:25;57.28;;;24.55;;
18820;SDS011;9539;59.332;18.034;2024-03-02T01:07:48;57.92;;;25.13;;
18820;SDS011;9539;59.332;18.034;2024-03-02T01:10:09;55.10;;;24.52;;
18820;SDS011;9539;59.332;18.034;2024-03-02T01:12:31;61.40;;;24.48;;
18820;SDS011;9539;59.332;18.034;2024-03-02T01:14:53;59.80;;;25.48;;
18820;SDS011;9539;59.332;18.034;2024-03-02T01:17:14;67.28;;;25.67;;
18820;SDS011;9539;59.332;18.034;2024-03-02T01:19:36;51.83;;;22.23;;
18820;SDS011;9539;59.332;18.034;2024-03-02T01:21:58;61.00;;;26.63;;
18820;SDS011;9539;59.332;18.034;2024-03-02T01:24:21;50.78;;;23.80;;
18820;SDS011;9539;59.332;18.034;2024-03-02T01:26:43;63.95;;;25.35;;
18820;SDS011;9539;59.332;18.034;2024-03-02T01:29:04;61.22;;;24.05;;
18820;SDS011;9539;59.332;18.034;2024-03-02T01:31:26;63.45;;;26.15;;
18820;SDS011;9539;59.332;18.034;2024-03-02T01:33:48;70.90;;;26.15;;
18820;SDS011;9539;59.332;18.034;2024-03-02T01:36:09;61.13;;;25.13;;
18820;SDS011;9539;59.332;18.034;2024-03-02T01:38:31;63.90;;;25.77;;
18820;SDS011;9539;59.332;18.034;2024-03-02T01:40:55;67.97;;;27.15;;
18820;SDS011;9539;59.332;18.034;2024-03-02T01:43:17;61.83;;;24.83;;
18820;SDS011;9539;59.332;18.034;2024-03-02T01:45:38;67.50;;;25.50;;
18820;SDS011;9539;59.332;18.034;2024-03-02T01:48:00;66.22;;;26.60;;
18820;SDS011;9539;59.332;18.034;2024-03-02T01:50:26;61.25;;;27.35;;
18820;SDS011;9539;59.332;18.034;2024-03-02T01:52:48;67.13;;;26.52;;
18820;SDS011;9539;59.332;18.034;2024-03-02T01:55:10;60.88;;;26.10;;
18820;SDS011;9539;59.332;18.034;2024-03-02T01:57:33;62.90;;;24.58;;
18820;SDS011;9539;59.332;18.034;2024-03-02T01:59:55;66.45;;;28.20;;
18820;SDS011;9539;59.332;18.034;2024-03-02T02:02:25;64.00;;;27.27;;
18820;SDS011;9539;59.332;18.034;2024-03-02T02:04:47;59.03;;;23.17;;
18820;SDS011;9539;59.332;18.034;2024-03-02T02:07:09;61.92;;;25.45;;
18820;SDS011;9539;59.332;18.034;2024-03-02T02:09:31;64.15;;;26.80;;
18820;SDS011;9539;59.332;18.034;2024-03-02T02:11:53;62.28;;;26.77;;
18820;SDS011;9539;59.332;18.034;2024-03-02T02:14:17;62.33;;;26.42;;
18820;SDS011;9539;59.332;18.034;2024-03-02T02:16:39;45.60;;;20.95;;
18820;SDS011;9539;59.332;18.034;2024-03-02T02:19:00;60.53;;;25.55;;
18820;SDS011;9539;59.332;18.034;2024-03-02T02:21:24;61.40;;;27.02;;
18820;SDS011;9539;59.332;18.034;2024-03-02T02:23:47;51.38;;;24.52;;
18820;SDS011;9539;59.332;18.034;2024-03-02T02:26:10;54.10;;;22.70;;
18820;SDS011;9539;59.332;18.034;2024-03-02T02:28:32;62.78;;;26.17;;
18820;SDS011;9539;59.332;18.034;2024-03-02T02:30:54;64.82;;;27.05;;
18820;SDS011;9539;59.332;18.034;2024-03-02T02:33:16;64.00;;;26.98;;
18820;SDS011;9539;59.332;18.034;2024-03-02T02:35:38;71.45;;;28.75;;
18820;SDS011;9539;59.332;18.034;2024-03-02T02:38:01;60.65;;;25.60;;
18820;SDS011;9539;59.332;18.034;2024-03-02T02:40:23;64.00;;;26.70;;
18820;SDS011;9539;59.332;18.034;2024-03-02T02:42:45;59.15;;;25.30;;
18820;SDS011;9539;59.332;18.034;2024-03-02T02:45:06;62.10;;;26.73;;
18820;SDS011;9539;59.332;18.034;2024-03-02T02:47:28;66.97;;;27.63;;
18820;SDS011;9539;59.332;18.034;2024-03-02T02:49:50;73.28;;;28.58;;
18820;SDS011;9539;59.332;18.034;2024-03-02T02:52:11;60.15;;;27.67;;
18820;SDS011;9539;59.332;18.034;2024-03-02T02:54:36;68.05;;;28.35;;
18820;SDS011;9539;59.332;18.034;2024-03-02T02:56:58;76.85;;;29.98;;
18820;SDS011;9539;59.332;18.034;2024-03-02T02:59:20;63.75;;;27.35;;
18820;SDS011;9539;59.332;18.034;2024-03-02T03:01:42;71.13;;;28.88;;
18820;SDS011;9539;59.332;18.034;2024-03-02T03:04:04;63.13;;;27.65;;
18820;SDS011;9539;59.332;18.034;2024-03-02T03:06:26;62.13;;;27.77;;
18820;SDS011;9539;59.332;18.034;2024-03-02T03:08:47;65.22;;;27.88;;
18820;SDS011;9539;59.332;18.034;2024-03-02T03:11:10;64.65;;;28.67;;
18820;SDS011;9539;59.332;18.034;2024-03-02T03:13:32;68.85;;;29.27;;
18820;SDS011;9539;59.332;18.034;2024-03-02T03:15:53;60.63;;;26.60;;
18820;SDS011;9539;59.332;18.034;2024-03-02T03:18:15;69.18;;;29.98;;
18820;SDS011;9539;59.332;18.034;2024-03-02T03:20:37;50.25;;;24.20;;
18820;SDS011;9539;59.332;18.034;2024-03-02T03:22:58;65.05;;;29.67;;
18820;SDS011;9539;59.332;18.034;2024-03-02T03:25:20;67.13;;;30.02;;
18820;SDS011;9539;59.332;18.034;2024-03-02T03:27:43;70.30;;;28.95;;
18820;SDS011;9539;59.332;18.034;2024-03-02T03:30:06;60.72;;;28.10;;
18820;SDS011;9539;59.332;18.034;2024-03-02T03:32:28;66.93;;;29.45;;
18820;SDS011;9539;59.332;18.034;2024-03-02T03:34:50;67.75;;;28.52;;
18820;SDS011;9539;59.332;18.034;2024-03-02T03:37:11;68.93;;;31.58;;
18820;SDS011;9539;59.332;18.034;2024-03-02T03:39:34;66.43;;;27.15;;
18820;SDS011;9539;59.332;18.034;2024-03-02T03:41:55;63.00;;;27.42;;
18820;SDS011;9539;59.332;18.034;2024-03-02T03:44:18;62.05;;;28.48;;
18820;SDS011;9539;59.332;18.034;2024-03-02T03:46:40;60.38;;;29.38;;
18820;SDS011;9539;59.332;18.034;2024-03-02T03:49:02;64.40;;;28.92;;
18820;SDS011;9539;59.332;18.034;2024-03-02T03:51:25;74.65;;;29.60;;
18820;SDS011;9539;59.332;18.034;2024-03-02T03:53:47;64.93;;;28.67;;
18820;SDS011;9539;59.332;18.034;2024-03-02T03:56:08;66.78;;;30.08;;
18820;SDS011;9539;59.332;18.034;2024-03-02T03:58:30;63.55;;;28.08;;
18820;SDS011;9539;59.332;18.034;2024-03-02T04:00:53;64.38;;;28.77;;
18820;SDS011;9539;59.332;18.034;2024-03-02T04:03:15;64.78;;;25.05;;
18820;SDS011;9539;59.332;18.034;2024-03-02T04:05:36;64.57;;;28.40;;
18820;SDS011;9539;59.332;18.034;2024-03-02T04:07:58;60.20;;;28.00;;
18820;SDS011;9539;59.332;18.034;2024-03-02T04:10:20;63.20;;;26.33;;
18820;SDS011;9539;59.332;18.034;2024-03-02T04:12:42;62.25;;;27.70;;
18820;SDS011;9539;59.332;18.034;2024-03-02T04:15:04;69.47;;;29.58;;
18820;SDS011;9539;59.332;18.034;2024-03-02T04:17:28;64.47;;;27.23;;
18820;SDS011;9539;59.332;18.034;2024-03-02T04:19:49;61.22;;;26.77;;
18820;SDS011;9539;59.332;18.034;2024-03-02T04:22:11;65.13;;;27.42;;
18820;SDS011;9539;59.332;18.034;2024-03-02T04:24:33;65.53;;;29.30;;
18820;SDS011;9539;59.332;18.034;2024-03-02T04:26:54;58.17;;;25.55;;
18820;SDS011;9539;59.332;18.034;2024-03-02T04:29:16;64.13;;;26.23;;
18820;SDS011;9539;59.332;18.034;2024-03-02T04:31:38;59.15;;;25.98;;
18820;SDS011;9539;59.332;18.034;2024-03-02T04:34:01;54.92;;;23.38;;
18820;SDS011;9539;59.332;18.034;2024-03-02T04:36:22;54.47;;;23.73;;
18820;SDS011;9539;59.332;18.034;2024-03-02T04:38:44;63.90;;;28.08;;
18820;SDS011;9539;59.332;18.034;2024-03-02T04:41:05;61.42;;;26.77;;
18820;SDS011;9539;59.332;18.034;2024-03-02T04:43:27;65.57;;;28.63;;
18820;SDS011;9539;59.332;18.034;2024-03-02T04:45:49;63.03;;;24.95;;
18820;SDS011;9539;59.332;18.034;2024-03-02T04:48:10;58.90;;;26.92;;
18820;SDS011;9539;59.332;18.034;2024-03-02T04:50:35;64.30;;;28.40;;
18820;SDS011;9539;59.332;18.034;2024-03-02T04:52:57;64.40;;;28.17;;
18820;SDS011;9539;59.332;18.034;2024-03-02T04:55:18;68.63;;;28.50;;
18820;SDS011;9539;59.332;18.034;2024-03-02T04:57:54;64.63;;;27.85;;
18820;SDS011;9539;59.332;18.034;2024-03-02T05:00:16;66.18;;;27.50;;
18820;SDS011;9539;59.332;18.034;2024-03-02T05:02:38;61.08;;;27.15;;
18820;SDS011;9539;59.332;18.034;2024-03-02T05:05:00;67.47;;;28.02;;
18820;SDS011;9539;59.332;18.034;2024-03-02T05:07:24;60.22;;;25.92;;
18820;SDS011;9539;59.332;18.034;2024-03-02T05:09:45;66.30;;;26.88;;
18820;SDS011;9539;59.332;18.034;2024-03-02T05:12:08;66.93;;;28.33;;
18820;SDS011;9539;59.332;18.034;2024-03-02T05:15:00;64.38;;;26.90;;
18820;SDS011;9539;59.332;18.034;2024-03-02T05:17:22;62.97;;;27.02;;
18820;SDS011;9539;59.332;18.034;2024-03-02T05:19:44;58.42;;;25.30;;
18820;SDS011;9539;59.332;18.034;2024-03-02T05:22:05;64.20;;;28.10;;
18820;SDS011;9539;59.332;18.034;2024-03-02T05:24:28;69.75;;;29.30;;
18820;SDS011;9539;59.332;18.034;2024-03-02T05:26:50;53.22;;;22.88;;
18820;SDS011;9539;59.332;18.034;2024-03-02T05:29:11;64.72;;;27.98;;
18820;SDS011;9539;59.332;18.034;2024-03-02T05:31:33;66.07;;;27.35;;
18820;SDS011;9539;59.332;18.034;2024-03-02T05:33:55;63.40;;;28.10;;
18820;SDS011;9539;59.332;18.034;2024-03-02T05:36:16;61.35;;;27.33;;
18820;SDS011;9539;59.332;18.034;2024-03-02T05:38:38;62.65;;;24.88;;
18820;SDS011;9539;59.332;18.034;2024-03-02T05:41:01;75.75;;;28.00;;
18820;SDS011;9539;59.332;18.034;2024-03-02T05:43:23;72.90;;;28.30;;
18820;SDS011;9539;59.332;18.034;2024-03-02T05:45:45;63.90;;;27.20;;
18820;SDS011;9539;59.332;18.034;2024-03-02T05:48:07;64.45;;;26.55;;
18820;SDS011;9539;59.332;18.034;2024-03-02T05:50:29;67.30;;;27.95;;
18820;SDS011;9539;59.332;18.034;2024-03-02T05:52:51;63.13;;;26.73;;
18820;SDS011;9539;59.332;18.034;2024-03-02T05:55:12;56.70;;;24.15;;
18820;SDS011;9539;59.332;18.034;2024-03-02T05:57:35;57.33;;;26.23;;
18820;SDS011;9539;59.332;18.034;2024-03-02T06:00:09;67.47;;;27.33;;
18820;SDS011;9539;59.332;18.034;2024-03-02T06:02:31;64.65;;;27.13;;
18820;SDS011;9539;59.332;18.034;2024-03-02T06:04:54;63.10;;;26.85;;
18820;SDS011;9539;59.332;18.034;2024-03-02T06:07:15;64.32;;;24.90;;
18820;SDS011;9539;59.332;18.034;2024-03-02T06:09:37;56.70;;;23.85;;
18820;SDS011;9539;59.332;18.034;2024-03-02T06:11:58;52.90;;;24.73;;
18820;SDS011;9539;59.332;18.034;2024-03-02T06:14:22;61.92;;;26.98;;
18820;SDS011;9539;59.332;18.034;2024-03-02T06:16:43;62.10;;;24.88;;
18820;SDS011;9539;59.332;18.034;2024-03-02T06:19:05;61.10;;;26.88;;
18820;SDS011;9539;59.332;18.034;2024-03-02T06:21:27;55.35;;;26.48;;
18820;SDS011;9539;59.332;18.034;2024-03-02T06:23:49;53.47;;;24.30;;
18820;SDS011;9539;59.332;18.034;2024-03-02T06:26:10;51.78;;;25.30;;
18820;SDS011;9539;59.332;18.034;2024-03-02T06:28:32;56.78;;;24.75;;
18820;SDS011;9539;59.332;18.034;2024-03-02T06:30:55;58.58;;;25.08;;
18820;SDS011;9539;59.332;18.034;2024-03-02T06:33:17;57.95;;;24.17;;
18820;SDS011;9539;59.332;18.034;2024-03-02T06:35:39;48.90;;;23.40;;
18820;SDS011;9539;59.332;18.034;2024-03-02T06:38:01;52.67;;;23.63;;
18820;SDS011;9539;59.332;18.034;2024-03-02T06:40:22;51.72;;;21.75;;
18820;SDS011;9539;59.332;18.034;2024-03-02T06:42:44;49.60;;;21.80;;
18820;SDS011;9539;59.332;18.034;2024-03-02T06:45:06;49.33;;;21.40;;
18820;SDS011;9539;59.332;18.034;2024-03-02T06:47:29;47.78;;;21.77;;
18820;SDS011;9539;59.332;18.034;2024-03-02T06:49:51;50.10;;;23.70;;
18820;SDS011;9539;59.332;18.034;2024-03-02T06:52:13;46.55;;;21.05;;
18820;SDS011;9539;59.332;18.034;2024-03-02T06:54:34;44.25;;;19.05;;
18820;SDS011;9539;59.332;18.034;2024-03-02T06:56:57;45.50;;;22.90;;
18820;SDS011;9539;59.332;18.034;2024-03-02T06:59:19;48.38;;;21.35;;
18820;SDS011;9539;59.332;18.034;2024-03-02T07:01:41;47.70;;;22.20;;
18820;SDS011;9539;59.332;18.034;2024-03-02T07:04:05;40.85;;;20.35;;
18820;SDS011;9539;59.332;18.034;2024-03-02T07:06:27;40.75;;;20.98;;
18820;SDS011;9539;59.332;18.034;2024-03-02T07:08:48;43.05;;;19.90;;
18820;SDS011;9539;59.332;18.034;2024-03-02T07:11:10;38.78;;;19.20;;
18820;SDS011;9539;59.332;18.034;2024-03-02T07:13:32;45.63;;;20.13;;
18820;SDS011;9539;59.332;18.034;2024-03-02T07:15:53;38.03;;;19.83;;
18820;SDS011;9539;59.332;18.034;2024-03-02T07:18:42;35.78;;;17.40;;
18820;SDS011;9539;59.332;18.034;2024-03-02T07:21:12;43.33;;;20.58;;
18820;SDS011;9539;59.332;18.034;2024-03-02T07:23:34;41.05;;;20.20;;
18820;SDS011;9539;59.332;18.034;2024-03-02T07:25:55;40.05;;;18.40;;
18820;SDS011;9539;59.332;18.034;2024-03-02T07:28:17;36.90;;;19.10;;
18820;SDS011;9539;59.332;18.034;2024-03-02T07:30:39;38.90;;;18.92;;
18820;SDS011;9539;59.332;18.034;2024-03-02T07:33:01;35.88;;;19.02;;
18820;SDS011;9539;59.332;18.034;2024-03-02T07:35:22;34.30;;;17.63;;
18820;SDS011;9539;59.332;18.034;2024-03-02T07:37:48;35.05;;;17.65;;
18820;SDS011;9539;59.332;18.034;2024-03-02T07:40:11;39.58;;;18.52;;
18820;SDS011;9539;59.332;18.034;2024-03-02T07:42:33;29.45;;;14.57;;
18820;SDS011;9539;59.332;18.034;2024-03-02T07:44:54;38.08;;;17.85;;
18820;SDS011;9539;59.332;18.034;2024-03-02T07:47:16;39.53;;;17.95;;
18820;SDS011;9539;59.332;18.034;2024-03-02T07:49:38;38.78;;;18.73;;
18820;SDS011;9539;59.332;18.034;2024-03-02T07:51:59;33.20;;;17.08;;
18820;SDS011;9539;59.332;18.034;2024-03-02T07:54:22;35.95;;;18.52;;
18820;SDS011;9539;59.332;18.034;2024-03-02T07:56:44;38.60;;;18.70;;
18820;SDS011;9539;59.332;18.034;2024-03-02T07:59:07;30.92;;;16.75;;
18820;SDS011;9539;59.332;18.034;2024-03-02T08:01:28;30.50;;;17.23;;
18820;SDS011;9539;59.332;18.034;2024-03-02T08:03:50;37.35;;;18.20;;
18820;SDS011;9539;59.332;18.034;2024-03-02T08:06:12;32.55;;;15.02;;
18820;SDS011;9539;59.332;18.034;2024-03-02T08:08:35;33.85;;;16.15;;
18820;SDS011;9539;59.332;18.034;2024-03-02T08:10:58;33.17;;;15.73;;
18820;SDS011;9539;59.332;18.034;2024-03-02T08:13:19;33.78;;;17.83;;
18820;SDS011;9539;59.332;18.034;2024-03-02T08:15:41;36.72;;;17.63;;
18820;SDS011;9539;59.332;18.034;2024-03-02T08:18:02;34.30;;;17.13;;
18820;SDS011;9539;59.332;18.034;2024-03-02T08:20:24;32.95;;;17.80;;
18820;SDS011;9539;59.332;18.034;2024-03-02T08:22:46;32.50;;;17.15;;
18820;SDS011;9539;59.332;18.034;2024-03-02T08:25:08;34.13;;;17.98;;
18820;SDS011;9539;59.332;18.034;2024-03-02T08:27:32;31.67;;;17.08;;
18820;SDS011;9539;59.332;18.034;2024-03-02T08:29:54;27.98;;;14.30;;
18820;SDS011;9539;59.332;18.034;2024-03-02T08:32:15;33.67;;;17.42;;
18820;SDS011;9539;59.332;18.034;2024-03-02T08:34:38;31.35;;;16.27;;
18820;SDS011;9539;59.332;18.034;2024-03-02T08:36:59;31.13;;;15.65;;
18820;SDS011;9539;59.332;18.034;2024-03-02T08:39:21;29.85;;;15.10;;
18820;SDS011;9539;59.332;18.034;2024-03-02T08:41:44;33.10;;;16.80;;
18820;SDS011;9539;59.332;18.034;2024-03-02T08:44:07;27.58;;;14.40;;
18820;SDS011;9539;59.332;18.034;2024-03-02T08:46:29;28.27;;;16.20;;
18820;SDS011;9539;59.332;18.034;2024-03-02T08:48:50;35.30;;;16.55;;
18820;SDS011;9539;59.332;18.034;2024-03-02T08:51:12;36.50;;;16.85;;
18820;SDS011;9539;59.332;18.034;2024-03-02T08:53:33;32.22;;;16.92;;
18820;SDS011;9539;59.332;18.034;2024-03-02T08:55:55;29.58;;;15.50;;
18820;SDS011;9539;59.332;18.034;2024-03-02T08:58:17;28.77;;;16.92;;
18820;SDS011;9539;59.332;18.034;2024-03-02T09:00:40;27.17;;;15.85;;
18820;SDS011;9539;59.332;18.034;2024-03-02T09:03:01;30.63;;;16.70;;
18820;SDS011;9539;59.332;18.034;2024-03-02T09:05:23;31.90;;;17.30;;
18820;SDS011;9539;59.332;18.034;2024-03-02T09:07:44;27.83;;;16.25;;
18820;SDS011;9539;59.332;18.034;2024-03-02T09:10:07;31.38;;;16.90;;
18820;SDS011;9539;59.332;18.034;2024-03-02T09:12:28;27.40;;;16.42;;
18820;SDS011;9539;59.332;18.034;2024-03-02T09:14:50;31.25;;;16.52;;
18820;SDS011;9539;59.332;18.034;2024-03-02T09:17:13;30.77;;;16.27;;
18820;SDS011;9539;59.332;18.034;2024-03-02T09:19:35;24.05;;;14.15;;
18820;SDS011;9539;59.332;18.034;2024-03-02T09:21:56;23.17;;;13.48;;
18820;SDS011;9539;59.332;18.034;2024-03-02T09:24:18;24.67;;;16.08;;
18820;SDS011;9539;59.332;18.034;2024-03-02T09:26:40;30.08;;;16.48;;
18820;SDS011;9539;59.332;18.034;2024-03-02T09:29:02;28.80;;;16.17;;
18820;SDS011;9539;59.332;18.034;2024-03-02T09:31:23;25.25;;;13.52;;
18820;SDS011;9539;59.332;18.034;2024-03-02T09:33:46;28.60;;;15.95;;
18820;SDS011;9539;59.332;18.034;2024-03-02T09:36:16;26.38;;;14.32;;
18820;SDS011;9539;59.332;18.034;2024-03-02T09:38:38;26.70;;;15.02;;
18820;SDS011;9539;59.332;18.034;2024-03-02T09:40:59;24.20;;;14.20;;
18820;SDS011;9539;59.332;18.034;2024-03-02T09:43:22;27.60;;;15.27;;
18820;SDS011;9539;59.332;18.034;2024-03-02T09:45:43;23.55;;;11.48;;
18820;SDS011;9539;59.332;18.034;2024-03-02T09:48:07;25.48;;;14.18;;
18820;SDS011;9539;59.332;18.034;2024-03-02T09:50:30;22.10;;;13.43;;
18820;SDS011;9539;59.332;18.034;2024-03-02T09:52:51;25.10;;;13.00;;
18820;SDS011;9539;59.332;18.034;2024-03-02T09:55:14;27.30;;;13.98;;
18820;SDS011;9539;59.332;18.034;2024-03-02T09:57:37;25.83;;;13.60;;
18820;SDS011;9539;59.332;18.034;2024-03-02T09:59:59;27.75;;;15.90;;
18820;SDS011;9539;59.332;18.034;2024-03-02T10:02:19;26.92;;;14.88;;
18820;SDS011;9539;59.332;18.034;2024-03-02T10:04:41;26.45;;;14.95;;
18820;SDS011;9539;59.332;18.034;2024-03-02T10:07:12;27.42;;;15.13;;
18820;SDS011;9539;59.332;18.034;2024-03-02T10:09:33;26.30;;;14.95;;
18820;SDS011;9539;59.332;18.034;2024-03-02T10:12:01;26.60;;;14.70;;
18820;SDS011;9539;59.332;18.034;2024-03-02T10:14:24;24.08;;;15.10;;
18820;SDS011;9539;59.332;18.034;2024-03-02T10:16:46;25.88;;;14.85;;
18820;SDS011;9539;59.332;18.034;2024-03-02T10:19:17;22.65;;;13.85;;
18820;SDS011;9539;59.332;18.034;2024-03-02T10:21:39;25.42;;;13.40;;
18820;SDS011;9539;59.332;18.034;2024-03-02T10:24:07;25.83;;;14.55;;
18820;SDS011;9539;59.332;18.034;2024-03-02T10:26:29;24.65;;;14.93;;
18820;SDS011;9539;59.332;18.034;2024-03-02T10:28:51;25.17;;;15.57;;
18820;SDS011;9539;59.332;18.034;2024-03-02T10:31:19;27.27;;;15.70;;
18820;SDS011;9539;59.332;18.034;2024-03-02T10:33:47;28.17;;;16.00;;
18820;SDS011;9539;59.332;18.034;2024-03-02T10:36:09;28.67;;;15.80;;
18820;SDS011;9539;59.332;18.034;2024-03-02T10:38:30;25.80;;;15.68;;
18820;SDS011;9539;59.332;18.034;2024-03-02T10:40:53;27.02;;;14.50;;
18820;SDS011;9539;59.332;18.034;2024-03-02T10:43:16;27.23;;;14.80;;
18820;SDS011;9539;59.332;18.034;2024-03-02T10:45:38;24.00;;;14.38;;
18820;SDS011;9539;59.332;18.034;2024-03-02T10:48:00;23.75;;;13.77;;
18820;SDS011;9539;59.332;18.034;2024-03-02T10:50:23;21.60;;;11.80;;
18820;SDS011;9539;59.332;18.034;2024-03-02T10:52:45;25.70;;;14.82;;
18820;SDS011;9539;59.332;18.034;2024-03-02T10:55:07;24.25;;;13.35;;
18820;SDS011;9539;59.332;18.034;2024-03-02T10:57:31;20.02;;;13.95;;
18820;SDS011;9539;59.332;18.034;2024-03-02T10:59:56;25.98;;;14.75;;
18820;SDS011;9539;59.332;18.034;2024-03-02T11:02:18;21.63;;;10.95;;
18820;SDS011;9539;59.332;18.034;2024-03-02T11:04:42;26.17;;;14.23;;
18820;SDS011;9539;59.332;18.034;2024-03-02T11:07:06;24.10;;;14.70;;
18820;SDS011;9539;59.332;18.034;2024-03-02T11:09:28;27.15;;;14.90;;
18820;SDS011;9539;59.332;18.034;2024-03-02T11:11:53;24.92;;;14.13;;
18820;SDS011;9539;59.332;18.034;2024-03-02T11:14:17;23.02;;;13.90;;
18820;SDS011;9539;59.332;18.034;2024-03-02T11:16:42;18.95;;;11.38;;
18820;SDS011;9539;59.332;18.034;2024-03-02T11:19:05;22.13;;;13.80;;
18820;SDS011;9539;59.332;18.034;2024-03-02T11:21:28;23.50;;;14.23;;
18820;SDS011;9539;59.332;18.034;2024-03-02T11:23:49;21.50;;;14.63;;
18820;SDS011;9539;59.332;18.034;2024-03-02T11:26:17;23.05;;;13.65;;
18820;SDS011;9539;59.332;18.034;2024-03-02T11:28:39;22.27;;;12.63;;
18820;SDS011;9539;59.332;18.034;2024-03-02T11:31:02;29.27;;;13.73;;
18820;SDS011;9539;59.332;18.034;2024-03-02T11:33:24;23.55;;;13.40;;
18820;SDS011;9539;59.332;18.034;2024-03-02T11:35:49;20.65;;;13.45;;
18820;SDS011;9539;59.332;18.034;2024-03-02T11:38:11;26.30;;;13.15;;
18820;SDS011;9539;59.332;18.034;2024-03-02T11:40:32;24.42;;;12.77;;
18820;SDS011;9539;59.332;18.034;2024-03-02T11:42:54;24.50;;;13.23;;
18820;SDS011;9539;59.332;18.034;2024-03-02T11:45:16;25.83;;;13.73;;
18820;SDS011;9539;59.332;18.034;2024-03-02T11:47:39;23.08;;;13.05;;
18820;SDS011;9539;59.332;18.034;2024-03-02T11:50:01;21.95;;;12.15;;
18820;SDS011;9539;59.332;18.034;2024-03-02T11:52:27;23.20;;;13.07;;
18820;SDS011;9539;59.332;18.034;2024-03-02T11:54:50;18.63;;;11.85;;
18820;SDS011;9539;59.332;18.034;2024-03-02T11:57:12;22.45;;;12.95;;
18820;SDS011;9539;59.332;18.034;2024-03-02T11:59:34;21.52;;;13.27;;
18820;SDS011;9539;59.332;18.034;2024-03-02T12:01:56;21.23;;;13.68;;
18820;SDS011;9539;59.332;18.034;2024-03-02T12:04:20;26.73;;;13.55;;
18820;SDS011;9539;59.332;18.034;2024-03-02T12:06:42;20.90;;;11.85;;
18820;SDS011;9539;59.332;18.034;2024-03-02T12:09:04;20.83;;;11.98;;
18820;SDS011;9539;59.332;18.034;2024-03-02T12:11:31;28.40;;;14.73;;
18820;SDS011;9539;59.332;18.034;2024-03-02T12:13:53;25.95;;;13.88;;
18820;SDS011;9539;59.332;18.034;2024-03-02T12:16:22;24.75;;;13.43;;
18820;SDS011;9539;59.332;18.034;2024-03-02T12:18:44;23.60;;;13.40;;
18820;SDS011;9539;59.332;18.034;2024-03-02T12:21:07;18.83;;;12.13;;
18820;SDS011;9539;59.332;18.034;2024-03-02T12:23:28;22.17;;;13.23;;
18820;SDS011;9539;59.332;18.034;2024-03-02T12:25:50;22.75;;;11.98;;
18820;SDS011;9539;59.332;18.034;2024-03-02T12:28:12;24.52;;;13.50;;
18820;SDS011;9539;59.332;18.034;2024-03-02T12:30:35;25.23;;;13.40;;
18820;SDS011;9539;59.332;18.034;2024-03-02T12:32:56;21.35;;;11.35;;
18820;SDS011;9539;59.332;18.034;2024-03-02T12:35:18;23.50;;;13.90;;
18820;SDS011;9539;59.332;18.034;2024-03-02T12:37:45;21.42;;;13.55;;
18820;SDS011;9539;59.332;18.034;2024-03-02T12:40:09;25.90;;;14.00;;
18820;SDS011;9539;59.332;18.034;2024-03-02T12:42:30;23.58;;;11.65;;
18820;SDS011;9539;59.332;18.034;2024-03-02T12:44:52;19.05;;;11.55;;
18820;SDS011;9539;59.332;18.034;2024-03-02T12:47:15;21.50;;;12.82;;
18820;SDS011;9539;59.332;18.034;2024-03-02T12:49:36;23.77;;;12.70;;
18820;SDS011;9539;59.332;18.034;2024-03-02T12:51:58;23.60;;;13.02;;
18820;SDS011;9539;59.332;18.034;2024-03-02T12:54:21;26.75;;;13.25;;
18820;SDS011;9539;59.332;18.034;2024-03-02T12:56:43;23.75;;;12.13;;
18820;SDS011;9539;59.332;18.034;2024-03-02T12:59:06;22.02;;;11.93;;
18820;SDS011;9539;59.332;18.034;2024-03-02T13:01:30;18.27;;;11.40;;
18820;SDS011;9539;59.332;18.034;2024-03-02T13:03:52;23.92;;;13.00;;
18820;SDS011;9539;59.332;18.034;2024-03-02T13:06:16;22.02;;;12.85;;
18820;SDS011;9539;59.332;18.034;2024-03-02T13:08:38;17.90;;;9.43;;
18820;SDS011;9539;59.332;18.034;2024-03-02T13:11:01;29.00;;;13.07;;
18820;SDS011;9539;59.332;18.034;2024-03-02T13:13:22;19.05;;;11.30;;
18820;SDS011;9539;59.332;18.034;2024-03-02T13:15:44;15.85;;;7.78;;
18820;SDS011;9539;59.332;18.034;2024-03-02T13:18:07;20.77;;;13.30;;
18820;SDS011;9539;59.332;18.034;2024-03-02T13:20:30;22.15;;;12.15;;
18820;SDS011;9539;59.332;18.034;2024-03-02T13:22:52;17.15;;;10.93;;
18820;SDS011;9539;59.332;18.034;2024-03-02T13:25:14;20.65;;;13.63;;
18820;SDS011;9539;59.332;18.034;2024-03-02T13:27:37;21.17;;;13.32;;
18820;SDS011;9539;59.332;18.034;2024-03-02T13:29:59;22.35;;;12.77;;
18820;SDS011;9539;59.332;18.034;2024-03-02T13:32:21;18.50;;;11.38;;
18820;SDS011;9539;59.332;18.034;2024-03-02T13:34:44;24.30;;;13.73;;
18820;SDS011;9539;59.332;18.034;2024-03-02T13:37:06;22.50;;;12.80;;
18820;SDS011;9539;59.332;18.034;2024-03-02T13:39:27;25.30;;;12.30;;
18820;SDS011;9539;59.332;18.034;2024-03-02T13:41:51;22.30;;;12.35;;
18820;SDS011;9539;59.332;18.034;2024-03-02T13:44:19;20.15;;;11.75;;
18820;SDS011;9539;59.332;18.034;2024-03-02T13:46:41;19.83;;;12.57;;
18820;SDS011;9539;59.332;18.034;2024-03-02T13:49:05;18.38;;;12.07;;
18820;SDS011;9539;59.332;18.034;2024-03-02T13:51:27;19.75;;;12.55;;
18820;SDS011;9539;59.332;18.034;2024-03-02T13:53:48;17.98;;;12.23;;
18820;SDS011;9539;59.332;18.034;2024-03-02T13:56:11;26.20;;;13.20;;